createdAt,value
2023-04-02T00:02:38.498Z,21.36
2023-04-02T00:05:53.178Z,21.21
2023-04-02T00:09:04.241Z,21.34
2023-04-02T00:12:19.172Z,21.28
2023-04-02T00:15:26.340Z,21.31
2023-04-02T00:18:37.182Z,21.29
2023-04-02T00:21:45.761Z,21.25
2023-04-02T00:24:54.666Z,21.29
2023-04-02T00:28:00.996Z,21.25
2023-04-02T00:31:06.200Z,21.16
2023-04-02T00:34:22.881Z,21.25
2023-04-02T00:37:30.979Z,21.09
2023-04-02T00:40:35.992Z,21.27
2023-04-02T00:43:45.060Z,21.33
2023-04-02T00:46:53.181Z,21.34
2023-04-02T00:50:06.580Z,21.37
2023-04-02T00:53:20.591Z,21.37
2023-04-02T00:56:30.153Z,21.36
2023-04-02T00:59:39.064Z,21.35
2023-04-02T01:02:44.101Z,21.34
2023-04-02T01:05:55.564Z,21.28
2023-04-02T01:09:18.058Z,21.18
2023-04-02T01:12:41.547Z,21.32
2023-04-02T01:15:56.070Z,21.31
2023-04-02T01:19:10.683Z,21.27
2023-04-02T01:22:24.423Z,21.31
2023-04-02T01:25:34.809Z,21.29
2023-04-02T01:28:58.234Z,21.29
2023-04-02T01:32:06.087Z,21.28
2023-04-02T01:35:12.170Z,21.26
2023-04-02T01:38:21.383Z,21.27
2023-04-02T01:41:32.083Z,21.25
2023-04-02T01:44:40.791Z,21.16
2023-04-02T01:47:45.773Z,21.26
2023-04-02T01:50:53.374Z,21.10
2023-04-02T01:54:02.200Z,21.21
2023-04-02T01:57:08.387Z,21.17
2023-04-02T02:00:18.469Z,21.24
2023-04-02T02:03:26.789Z,21.23
2023-04-02T02:06:33.192Z,21.03
2023-04-02T02:09:40.572Z,21.16
2023-04-02T02:12:53.747Z,21.17
2023-04-02T02:16:05.559Z,21.17
2023-04-02T02:19:18.497Z,21.17
2023-04-02T02:22:31.309Z,21.16
2023-04-02T02:25:39.982Z,21.12
2023-04-02T02:28:51.323Z,21.13
2023-04-02T02:32:01.622Z,21.10
2023-04-02T02:35:16.806Z,21.13
2023-04-02T02:38:54.777Z,21.12
2023-04-02T02:42:04.590Z,21.10
2023-04-02T02:45:17.123Z,21.08
2023-04-02T02:48:26.758Z,21.10
2023-04-02T02:51:40.544Z,21.11
2023-04-02T02:54:49.241Z,21.07
2023-04-02T02:58:00.358Z,21.07
2023-04-02T03:01:07.492Z,21.09
2023-04-02T03:04:14.242Z,21.00
2023-04-02T03:07:19.551Z,21.07
2023-04-02T03:10:31.804Z,21.06
2023-04-02T03:13:39.353Z,21.06
2023-04-02T03:16:48.213Z,21.05
2023-04-02T03:19:58.697Z,21.03
2023-04-02T03:23:10.998Z,21.02
2023-04-02T03:26:21.616Z,21.02
2023-04-02T03:32:36.565Z,20.98
2023-04-02T03:35:45.517Z,21.02
2023-04-02T03:38:55.328Z,21.00
2023-04-02T03:42:04.849Z,20.96
2023-04-02T03:45:15.905Z,20.91
2023-04-02T03:48:27.150Z,20.98
2023-04-02T03:51:43.941Z,20.98
2023-04-02T03:54:53.228Z,21.01
2023-04-02T03:58:04.196Z,21.00
2023-04-02T04:01:19.136Z,21.00
2023-04-02T04:04:28.057Z,20.97
2023-04-02T04:07:38.899Z,21.00
2023-04-02T04:10:46.167Z,21.00
2023-04-02T04:13:59.789Z,21.00
2023-04-02T04:17:16.733Z,20.97
2023-04-02T04:20:26.948Z,20.81
2023-04-02T04:23:36.545Z,20.98
2023-04-02T04:26:51.120Z,20.97
2023-04-02T04:30:07.017Z,20.98
2023-04-02T04:33:22.757Z,21.08
2023-04-02T04:36:33.324Z,21.13
2023-04-02T04:39:51.046Z,21.16
2023-04-02T04:43:01.435Z,21.23
2023-04-02T04:46:10.287Z,21.28
2023-04-02T04:49:21.264Z,21.11
2023-04-02T04:52:29.205Z,20.97
2023-04-02T04:55:40.655Z,20.89
2023-04-02T04:58:51.086Z,20.86
2023-04-02T05:02:02.475Z,20.76
2023-04-02T05:05:19.325Z,20.79
2023-04-02T05:08:30.564Z,20.78
2023-04-02T05:11:42.305Z,20.71
2023-04-02T05:14:55.393Z,20.67
2023-04-02T05:18:07.728Z,20.73
2023-04-02T05:21:21.961Z,20.69
2023-04-02T05:25:00.164Z,20.68
2023-04-02T05:28:13.322Z,20.66
2023-04-02T05:31:23.241Z,20.50
2023-04-02T05:34:29.436Z,20.60
2023-04-02T05:37:33.207Z,20.53
2023-04-02T05:40:42.255Z,20.50
2023-04-02T05:43:50.698Z,20.34
2023-04-02T05:47:00.269Z,19.49
2023-04-02T05:50:21.203Z,19.94
2023-04-02T05:53:30.380Z,20.39
2023-04-02T05:56:40.982Z,20.63
2023-04-02T05:59:52.346Z,20.66
2023-04-02T06:03:04.944Z,20.67
2023-04-02T06:06:20.287Z,20.80
2023-04-02T06:09:37.276Z,21.04
2023-04-02T06:12:46.907Z,21.05
2023-04-02T06:15:55.020Z,21.15
2023-04-02T06:19:03.228Z,21.20
2023-04-02T06:22:21.395Z,21.30
2023-04-02T06:25:32.333Z,21.38
2023-04-02T06:28:43.150Z,21.25
2023-04-02T06:31:52.551Z,21.44
2023-04-02T06:34:56.814Z,21.49
2023-04-02T06:38:06.751Z,21.53
2023-04-02T06:41:19.460Z,21.52
2023-04-02T06:44:32.102Z,21.55
2023-04-02T06:47:49.282Z,21.66
2023-04-02T06:51:08.077Z,21.69
2023-04-02T06:54:19.311Z,21.71
2023-04-02T06:57:26.569Z,21.73
2023-04-02T07:00:39.245Z,21.74
2023-04-02T07:03:49.640Z,21.76
2023-04-02T07:06:57.894Z,21.72
2023-04-02T07:10:05.047Z,21.80
2023-04-02T07:13:12.119Z,21.80
2023-04-02T07:16:19.664Z,21.78
2023-04-02T07:19:28.570Z,21.82
2023-04-02T07:22:33.931Z,21.62
2023-04-02T07:25:40.757Z,21.80
2023-04-02T07:28:47.071Z,21.76
2023-04-02T07:31:55.923Z,21.80
2023-04-02T07:35:02.886Z,21.73
2023-04-02T07:38:13.713Z,21.75
2023-04-02T07:41:22.430Z,21.86
2023-04-02T07:44:26.043Z,21.93
2023-04-02T07:47:31.806Z,21.80
2023-04-02T07:50:40.472Z,21.98
2023-04-02T07:53:46.161Z,21.98
2023-04-02T07:56:52.049Z,22.00
2023-04-02T07:59:58.661Z,22.14
2023-04-02T08:03:02.930Z,22.21
2023-04-02T08:06:10.209Z,22.17
2023-04-02T08:09:15.797Z,21.97
2023-04-02T08:12:20.214Z,22.11
2023-04-02T08:15:25.132Z,22.16
2023-04-02T08:18:30.927Z,21.96
2023-04-02T08:21:36.887Z,21.93
2023-04-02T08:24:43.590Z,22.01
2023-04-02T08:27:51.393Z,21.97
2023-04-02T08:30:55.783Z,21.95
2023-04-02T08:34:02.479Z,21.96
2023-04-02T08:37:12.995Z,21.91
2023-04-02T08:40:27.731Z,21.95
2023-04-02T08:44:01.261Z,21.95
2023-04-02T08:47:08.018Z,21.93
2023-04-02T08:50:27.307Z,21.90
2023-04-02T08:53:37.479Z,21.94
2023-04-02T08:56:46.395Z,21.87
2023-04-02T08:59:57.409Z,21.94
2023-04-02T09:03:08.064Z,21.97
2023-04-02T09:06:19.203Z,21.97
2023-04-02T09:09:27.413Z,21.96
2023-04-02T09:12:37.691Z,22.01
2023-04-02T09:15:43.163Z,22.07
2023-04-02T09:18:54.400Z,22.11
2023-04-02T09:22:10.032Z,22.20
2023-04-02T09:25:19.972Z,22.29
2023-04-02T09:28:27.915Z,22.34
2023-04-02T09:31:38.313Z,22.24
2023-04-02T09:34:45.176Z,22.43
2023-04-02T09:38:12.954Z,22.47
2023-04-02T09:41:25.127Z,22.47
2023-04-02T09:44:32.767Z,22.51
2023-04-02T09:47:38.522Z,22.50
2023-04-02T09:50:43.303Z,22.48
2023-04-02T09:53:50.408Z,22.43
2023-04-02T09:57:08.078Z,22.57
2023-04-02T10:00:30.472Z,22.55
2023-04-02T10:03:37.190Z,22.61
2023-04-02T10:06:59.300Z,22.53
2023-04-02T10:10:18.080Z,22.48
2023-04-02T10:13:31.773Z,22.46
2023-04-02T10:16:44.058Z,22.48
2023-04-02T10:19:52.169Z,22.30
2023-04-02T10:22:56.446Z,22.49
2023-04-02T10:26:24.253Z,22.51
2023-04-02T10:29:50.567Z,22.52
2023-04-02T10:33:02.300Z,22.57
2023-04-02T10:36:15.407Z,22.30
2023-04-02T10:39:25.964Z,22.63
2023-04-02T10:42:38.375Z,22.35
2023-04-02T10:45:50.071Z,22.47
2023-04-02T10:49:07.773Z,22.14
2023-04-02T10:52:22.453Z,22.20
2023-04-02T10:55:31.518Z,22.04
2023-04-02T10:58:42.528Z,22.21
2023-04-02T11:01:53.376Z,22.33
2023-04-02T11:05:02.204Z,22.36
2023-04-02T11:08:15.208Z,22.29
2023-04-02T11:11:24.824Z,22.32
2023-04-02T11:14:32.359Z,22.33
2023-04-02T11:17:38.763Z,22.19
2023-04-02T11:21:04.212Z,22.34
2023-04-02T11:24:25.409Z,22.37
2023-04-02T11:27:32.684Z,22.29
2023-04-02T11:30:37.861Z,22.07
2023-04-02T11:33:48.827Z,22.07
2023-04-02T11:37:09.799Z,22.08
2023-04-02T11:40:51.554Z,22.06
2023-04-02T11:44:04.975Z,22.09
2023-04-02T11:47:21.057Z,22.19
2023-04-02T11:50:34.756Z,22.27
2023-04-02T11:53:45.998Z,22.28
2023-04-02T11:56:58.969Z,22.31
2023-04-02T12:00:23.483Z,22.31
2023-04-02T12:04:10.332Z,22.30
2023-04-02T12:07:47.468Z,22.27
2023-04-02T12:10:56.916Z,22.31
2023-04-02T12:14:02.119Z,22.31
2023-04-02T12:17:18.700Z,22.30
2023-04-02T12:20:27.313Z,22.30
2023-04-02T12:23:37.384Z,22.27
2023-04-02T12:26:44.143Z,22.27
2023-04-02T12:29:49.438Z,22.26
2023-04-02T12:32:57.831Z,22.26
2023-04-02T12:36:05.468Z,22.26
2023-04-02T12:39:21.084Z,22.27
2023-04-02T12:42:32.214Z,22.20
2023-04-02T12:45:38.189Z,22.30
2023-04-02T12:48:46.277Z,22.26
2023-04-02T12:51:52.804Z,22.30
2023-04-02T12:55:01.721Z,22.28
2023-04-02T12:58:06.828Z,22.28
2023-04-02T13:01:21.249Z,22.27
2023-04-02T13:04:29.573Z,22.24
2023-04-02T13:07:36.399Z,22.23
2023-04-02T13:10:44.866Z,22.21
2023-04-02T13:13:52.458Z,22.24
2023-04-02T13:16:58.283Z,22.29
2023-04-02T13:20:31.961Z,22.29
2023-04-02T13:23:40.733Z,22.29
2023-04-02T13:26:49.472Z,22.28
2023-04-02T13:29:56.415Z,22.27
2023-04-02T13:33:04.871Z,22.23
2023-04-02T13:36:16.787Z,22.29
2023-04-02T13:39:21.618Z,22.05
2023-04-02T13:42:32.070Z,21.99
2023-04-02T13:45:39.933Z,22.09
2023-04-02T13:48:46.247Z,22.04
2023-04-02T13:51:54.523Z,22.07
2023-04-02T13:55:01.869Z,22.14
2023-04-02T13:58:08.966Z,22.24
2023-04-02T14:01:15.347Z,22.25
2023-04-02T14:04:24.390Z,22.26
2023-04-02T14:07:47.703Z,22.30
2023-04-02T14:11:07.722Z,22.14
2023-04-02T14:14:36.758Z,22.11
2023-04-02T14:17:55.158Z,22.29
2023-04-02T14:21:10.889Z,22.33
2023-04-02T14:24:22.565Z,22.33
2023-04-02T14:27:40.332Z,22.35
2023-04-02T14:30:54.605Z,22.33
2023-04-02T14:34:09.407Z,22.27
2023-04-02T14:37:24.228Z,22.33
2023-04-02T14:40:34.552Z,22.30
2023-04-02T14:43:45.823Z,22.34
2023-04-02T14:47:02.515Z,22.35
2023-04-02T14:50:14.555Z,22.35
2023-04-02T14:53:25.917Z,22.29
2023-04-02T14:56:30.844Z,22.37
2023-04-02T14:59:41.269Z,22.36
2023-04-02T15:02:51.096Z,22.34
2023-04-02T15:05:58.521Z,22.32
2023-04-02T15:09:09.735Z,22.33
2023-04-02T15:12:24.296Z,22.23
2023-04-02T15:15:41.236Z,22.39
2023-04-02T15:18:47.394Z,22.33
2023-04-02T15:22:22.285Z,22.36
2023-04-02T15:25:36.429Z,22.40
2023-04-02T15:28:47.518Z,22.28
2023-04-02T15:31:56.606Z,22.49
2023-04-02T15:35:18.439Z,22.40
2023-04-02T15:38:28.612Z,22.45
2023-04-02T15:41:38.587Z,22.45
2023-04-02T15:44:56.874Z,22.33
2023-04-02T15:48:39.452Z,22.47
2023-04-02T15:51:59.390Z,22.47
2023-04-02T15:55:16.757Z,22.33
2023-04-02T15:58:30.850Z,22.49
2023-04-02T16:01:47.952Z,22.47
2023-04-02T16:05:04.163Z,22.47
2023-04-02T16:08:46.838Z,22.43
2023-04-02T16:11:59.473Z,22.41
2023-04-02T16:15:15.712Z,22.42
2023-04-02T16:18:30.331Z,22.44
2023-04-02T16:21:39.719Z,22.34
2023-04-02T16:24:44.809Z,22.31
2023-04-02T16:27:58.323Z,22.25
2023-04-02T16:31:11.456Z,22.35
2023-04-02T16:34:26.512Z,22.16
2023-04-02T16:37:42.800Z,22.27
2023-04-02T16:41:07.866Z,22.26
2023-04-02T16:44:26.852Z,22.20
2023-04-02T16:47:48.491Z,21.98
2023-04-02T16:51:05.431Z,22.18
2023-04-02T16:54:18.589Z,22.17
2023-04-02T16:57:35.029Z,22.19
2023-04-02T17:00:49.982Z,22.18
2023-04-02T17:04:14.172Z,22.18
2023-04-02T17:07:30.251Z,22.14
2023-04-02T17:10:42.313Z,22.17
2023-04-02T17:13:54.639Z,22.19
2023-04-02T17:17:04.346Z,22.18
2023-04-02T17:20:20.037Z,22.18
2023-04-02T17:23:27.994Z,22.23
2023-04-02T17:26:35.709Z,22.21
2023-04-02T17:29:42.401Z,22.19
2023-04-02T17:32:48.382Z,22.11
2023-04-02T17:36:05.594Z,22.14
2023-04-02T17:39:22.138Z,22.00
2023-04-02T17:42:44.695Z,22.13
2023-04-02T17:45:55.477Z,22.12
2023-04-02T17:49:10.082Z,22.11
2023-04-02T17:52:19.101Z,21.90
2023-04-02T17:55:38.732Z,22.09
2023-04-02T17:58:59.153Z,21.99
2023-04-02T18:02:18.187Z,22.01
2023-04-02T18:05:32.012Z,21.95
2023-04-02T18:08:46.954Z,21.83
2023-04-02T18:12:03.165Z,21.87
2023-04-02T18:15:18.607Z,21.91
2023-04-02T18:18:47.343Z,21.87
2023-04-02T18:22:01.297Z,21.89
2023-04-02T18:25:25.821Z,21.89
2023-04-02T18:28:46.825Z,21.86
2023-04-02T18:31:59.117Z,21.87
2023-04-02T18:35:14.285Z,21.84
2023-04-02T18:38:30.062Z,21.82
2023-04-02T18:41:53.446Z,21.94
2023-04-02T18:45:05.678Z,21.96
2023-04-02T18:48:24.142Z,21.90
2023-04-02T18:51:34.286Z,21.87
2023-04-02T18:54:43.992Z,21.94
2023-04-02T18:57:51.364Z,21.94
2023-04-02T19:00:57.655Z,22.01
2023-04-02T19:04:09.084Z,21.98
2023-04-02T19:07:20.086Z,22.02
2023-04-02T19:10:31.726Z,22.02
2023-04-02T19:13:36.373Z,22.04
2023-04-02T19:16:55.359Z,22.09
2023-04-02T19:20:11.576Z,22.07
2023-04-02T19:23:30.236Z,22.02
2023-04-02T19:26:44.380Z,22.00
2023-04-02T19:29:58.739Z,22.01
2023-04-02T19:33:15.255Z,22.05
2023-04-02T19:36:36.149Z,22.06
2023-04-02T19:40:14.791Z,22.03
2023-04-02T19:43:21.738Z,22.04
2023-04-02T19:46:28.703Z,22.04
2023-04-02T19:49:37.033Z,22.02
2023-04-02T19:52:41.045Z,22.00
2023-04-02T19:55:47.311Z,22.04
2023-04-02T19:58:53.136Z,22.03
2023-04-02T20:01:59.151Z,22.01
2023-04-02T20:05:04.053Z,22.03
2023-04-02T20:08:09.594Z,22.01
2023-04-02T20:11:14.177Z,22.01
2023-04-02T20:14:22.315Z,22.00
2023-04-02T20:17:28.634Z,22.02
2023-04-02T20:20:34.291Z,22.02
2023-04-02T20:23:40.438Z,21.97
2023-04-02T20:26:47.457Z,22.00
2023-04-02T20:29:55.619Z,21.97
2023-04-02T20:33:02.959Z,21.94
2023-04-02T20:36:10.535Z,21.91
2023-04-02T20:39:20.929Z,21.89
2023-04-02T20:42:27.729Z,21.88
2023-04-02T20:45:33.593Z,21.85
2023-04-02T20:48:39.523Z,21.86
2023-04-02T20:51:44.697Z,21.84
2023-04-02T20:54:53.314Z,21.80
2023-04-02T20:57:58.785Z,21.81
2023-04-02T21:01:14.783Z,21.82
2023-04-02T21:04:20.056Z,21.78
2023-04-02T21:07:26.272Z,21.78
2023-04-02T21:10:31.756Z,21.77
2023-04-02T21:13:38.194Z,21.75
2023-04-02T21:16:43.182Z,21.75
2023-04-02T21:19:46.762Z,21.75
2023-04-02T21:22:50.439Z,21.72
2023-04-02T21:25:58.733Z,21.71
2023-04-02T21:29:02.409Z,21.73
2023-04-02T21:32:20.391Z,21.72
2023-04-02T21:35:24.659Z,21.72
2023-04-02T21:38:28.084Z,21.71
2023-04-02T21:41:33.798Z,21.72
2023-04-02T21:44:37.464Z,21.70
2023-04-02T21:47:44.666Z,21.69
2023-04-02T21:50:51.364Z,21.68
2023-04-02T21:53:57.819Z,21.64
2023-04-02T21:57:03.587Z,21.68
2023-04-02T22:00:14.038Z,21.66
2023-04-02T22:03:30.899Z,21.67
2023-04-02T22:06:40.381Z,21.65
2023-04-02T22:09:46.369Z,21.63
2023-04-02T22:12:54.207Z,21.64
2023-04-02T22:16:05.745Z,21.61
2023-04-02T22:19:17.703Z,21.60
2023-04-02T22:22:26.824Z,21.61
2023-04-02T22:25:34.812Z,21.62
2023-04-02T22:28:41.582Z,21.63
2023-04-02T22:31:45.571Z,21.59
2023-04-02T22:34:54.070Z,21.61
2023-04-02T22:38:01.154Z,21.60
2023-04-02T22:41:10.055Z,21.61
2023-04-02T22:44:18.410Z,21.56
2023-04-02T22:47:24.468Z,21.54
2023-04-02T22:50:33.022Z,21.58
2023-04-02T22:53:37.613Z,21.57
2023-04-02T22:56:42.233Z,21.57
2023-04-02T22:59:46.090Z,21.55
2023-04-02T23:02:49.962Z,21.56
2023-04-02T23:06:02.553Z,21.57
2023-04-02T23:09:06.388Z,21.58
2023-04-02T23:12:10.123Z,21.59
2023-04-02T23:15:13.881Z,21.57
2023-04-02T23:18:17.593Z,21.56
2023-04-02T23:21:22.608Z,21.57
2023-04-02T23:24:26.086Z,21.56
2023-04-02T23:27:29.633Z,21.52
2023-04-02T23:30:33.348Z,21.51
2023-04-02T23:33:37.075Z,21.50
2023-04-02T23:36:42.223Z,21.54
2023-04-02T23:39:46.318Z,21.52
2023-04-02T23:42:50.518Z,21.53
2023-04-02T23:45:54.678Z,21.52
2023-04-02T23:48:59.346Z,21.53
2023-04-02T23:52:05.963Z,21.54
2023-04-02T23:55:12.521Z,21.54
2023-04-02T23:58:16.707Z,21.51
